createdAt,value
2019-05-26T00:00:34.988Z,15.40
2019-05-26T00:03:04.527Z,13.58
2019-05-26T00:05:33.853Z,13.93
2019-05-26T00:08:03.345Z,13.83
2019-05-26T00:10:32.971Z,13.50
2019-05-26T00:13:02.342Z,12.95
2019-05-26T00:15:31.840Z,14.33
2019-05-26T00:18:01.372Z,14.85
2019-05-26T00:20:30.696Z,13.20
2019-05-26T00:23:00.029Z,13.50
2019-05-26T00:25:29.340Z,13.22
2019-05-26T00:27:58.688Z,12.63
2019-05-26T00:30:28.011Z,14.25
2019-05-26T00:33:09.476Z,15.43
2019-05-26T00:35:38.927Z,15.75
2019-05-26T00:38:08.279Z,13.28
2019-05-26T00:40:37.756Z,12.20
2019-05-26T00:43:07.108Z,13.22
2019-05-26T00:45:36.575Z,12.40
2019-05-26T00:48:05.984Z,11.97
2019-05-26T00:50:35.468Z,12.18
2019-05-26T00:53:04.965Z,12.23
2019-05-26T00:55:34.279Z,12.50
2019-05-26T00:58:03.865Z,11.93
2019-05-26T01:00:41.715Z,11.80
2019-05-26T01:03:12.956Z,11.57
2019-05-26T01:05:43.056Z,12.47
2019-05-26T01:08:12.562Z,13.93
2019-05-26T01:10:42.013Z,15.30
2019-05-26T01:13:11.365Z,15.20
2019-05-26T01:15:40.860Z,14.73
2019-05-26T01:18:10.276Z,14.60
2019-05-26T01:20:39.671Z,15.20
2019-05-26T01:23:09.027Z,16.25
2019-05-26T01:25:38.381Z,17.98
2019-05-26T01:28:07.767Z,18.07
2019-05-26T01:30:38.871Z,15.95
2019-05-26T01:33:08.328Z,16.82
2019-05-26T01:35:40.617Z,16.07
2019-05-26T01:38:29.681Z,17.32
2019-05-26T01:40:59.021Z,19.02
2019-05-26T01:43:28.447Z,20.23
2019-05-26T01:45:57.798Z,19.42
2019-05-26T01:48:27.185Z,19.87
2019-05-26T01:50:56.610Z,18.80
2019-05-26T01:53:25.939Z,20.00
2019-05-26T01:55:55.279Z,20.32
2019-05-26T01:58:24.633Z,18.92
2019-05-26T02:00:54.015Z,18.90
2019-05-26T02:03:23.367Z,17.77
2019-05-26T02:05:52.771Z,19.30
2019-05-26T02:08:36.474Z,17.50
2019-05-26T02:10:53.123Z,17.37
2019-05-26T02:13:22.443Z,16.60
2019-05-26T02:15:51.803Z,15.70
2019-05-26T02:18:21.115Z,16.52
2019-05-26T02:20:50.451Z,15.90
2019-05-26T02:23:19.772Z,15.43
2019-05-26T02:25:49.123Z,14.85
2019-05-26T02:28:18.433Z,16.67
2019-05-26T02:30:47.876Z,14.38
2019-05-26T02:33:17.260Z,16.02
2019-05-26T02:35:47.748Z,15.93
2019-05-26T02:38:17.087Z,14.87
2019-05-26T02:40:47.588Z,13.93
2019-05-26T02:43:16.971Z,15.28
2019-05-26T02:45:46.315Z,15.83
2019-05-26T02:48:15.626Z,15.05
2019-05-26T02:50:45.031Z,14.58
2019-05-26T02:53:14.421Z,15.10
2019-05-26T02:55:43.759Z,16.15
2019-05-26T02:58:13.082Z,15.80
2019-05-26T03:00:44.211Z,16.80
2019-05-26T03:03:15.418Z,15.95
2019-05-26T03:05:46.560Z,15.10
2019-05-26T03:08:16.469Z,15.58
2019-05-26T03:10:45.921Z,15.80
2019-05-26T03:13:17.172Z,15.68
2019-05-26T03:15:47.002Z,15.13
2019-05-26T03:18:16.754Z,16.33
2019-05-26T03:20:46.337Z,15.73
2019-05-26T03:23:16.476Z,16.27
2019-05-26T03:25:46.063Z,14.73
2019-05-26T03:28:15.480Z,15.00
2019-05-26T03:30:44.824Z,15.80
2019-05-26T03:33:14.220Z,15.70
2019-05-26T03:35:46.788Z,15.72
2019-05-26T03:38:16.175Z,15.93
2019-05-26T03:40:45.609Z,16.35
2019-05-26T03:43:14.929Z,15.72
2019-05-26T03:46:03.194Z,18.55
2019-05-26T03:48:32.508Z,15.48
2019-05-26T03:51:01.845Z,14.63
2019-05-26T03:53:31.222Z,16.30
2019-05-26T03:56:00.565Z,16.12
2019-05-26T03:58:29.878Z,15.58
2019-05-26T04:00:59.239Z,15.18
2019-05-26T04:03:28.559Z,14.93
2019-05-26T04:05:57.944Z,13.35
2019-05-26T04:08:27.326Z,14.87
2019-05-26T04:10:56.734Z,14.33
2019-05-26T04:13:26.053Z,15.20
2019-05-26T04:15:55.396Z,15.48
2019-05-26T04:18:24.814Z,14.83
2019-05-26T04:20:54.137Z,13.98
2019-05-26T04:23:23.540Z,14.05
2019-05-26T04:25:52.870Z,14.10
2019-05-26T04:28:22.330Z,13.78
2019-05-26T04:30:51.643Z,13.38
2019-05-26T04:33:21.064Z,14.23
2019-05-26T04:35:50.383Z,14.70
2019-05-26T04:38:19.724Z,14.60
2019-05-26T04:40:49.037Z,15.32
2019-05-26T04:43:18.393Z,15.80
2019-05-26T04:45:47.735Z,14.38
2019-05-26T04:48:17.159Z,15.48
2019-05-26T04:50:46.489Z,16.07
2019-05-26T04:53:15.836Z,13.62
2019-05-26T04:55:45.153Z,14.68
2019-05-26T04:58:14.501Z,13.20
2019-05-26T05:00:43.859Z,13.32
2019-05-26T05:03:13.203Z,13.50
2019-05-26T05:05:42.609Z,16.70
2019-05-26T05:08:12.024Z,15.05
2019-05-26T05:10:42.923Z,15.35
2019-05-26T05:13:12.553Z,14.18
2019-05-26T05:15:41.946Z,14.13
2019-05-26T05:18:11.299Z,13.72
2019-05-26T05:20:41.044Z,12.60
2019-05-26T05:25:39.853Z,10.88
2019-05-26T05:28:09.201Z,12.63
2019-05-26T05:30:38.543Z,12.37
2019-05-26T05:33:07.885Z,11.93
2019-05-26T05:35:37.227Z,10.55
2019-05-26T05:38:06.540Z,10.32
2019-05-26T05:40:35.992Z,10.05
2019-05-26T05:43:05.315Z,10.05
2019-05-26T05:45:34.677Z,10.10
2019-05-26T05:48:04.973Z,10.20
2019-05-26T05:50:34.293Z,10.50
2019-05-26T05:53:03.630Z,10.00
2019-05-26T05:55:32.960Z,10.03
2019-05-26T05:58:02.316Z,9.35
2019-05-26T06:00:31.634Z,9.98
2019-05-26T06:03:01.243Z,8.40
2019-05-26T06:05:30.580Z,10.18
2019-05-26T06:07:59.933Z,9.43
2019-05-26T06:10:29.319Z,10.18
2019-05-26T06:12:58.713Z,10.10
2019-05-26T06:15:28.064Z,9.40
2019-05-26T06:17:57.452Z,9.43
2019-05-26T06:20:26.792Z,9.58
2019-05-26T06:22:56.109Z,9.30
2019-05-26T06:25:25.474Z,9.35
2019-05-26T06:27:54.791Z,8.55
2019-05-26T06:30:24.489Z,9.08
2019-05-26T06:32:53.798Z,9.03
2019-05-26T06:35:23.207Z,9.03
2019-05-26T06:37:52.591Z,8.48
2019-05-26T06:40:21.946Z,8.80
2019-05-26T06:42:51.284Z,8.55
2019-05-26T06:45:21.035Z,8.05
2019-05-26T06:47:50.445Z,11.25
2019-05-26T06:50:19.903Z,10.38
2019-05-26T06:52:49.268Z,9.78
2019-05-26T06:55:18.590Z,9.75
2019-05-26T06:57:47.981Z,10.35
2019-05-26T07:00:17.971Z,11.28
2019-05-26T07:02:47.282Z,11.25
2019-05-26T07:05:18.508Z,11.00
2019-05-26T07:07:47.864Z,9.68
2019-05-26T07:10:17.266Z,8.80
2019-05-26T07:12:46.578Z,9.45
2019-05-26T07:15:16.576Z,8.45
2019-05-26T07:17:45.892Z,8.13
2019-05-26T07:20:15.295Z,8.68
2019-05-26T07:22:44.594Z,8.15
2019-05-26T07:25:14.203Z,7.45
2019-05-26T07:27:43.527Z,7.00
2019-05-26T07:30:13.391Z,6.28
2019-05-26T07:32:42.790Z,6.60
2019-05-26T07:35:12.771Z,6.17
2019-05-26T07:37:42.118Z,5.95
2019-05-26T07:40:11.659Z,7.03
2019-05-26T07:42:41.136Z,6.27
2019-05-26T07:45:11.176Z,5.45
2019-05-26T07:47:40.515Z,5.45
2019-05-26T07:50:10.778Z,5.90
2019-05-26T07:52:40.181Z,5.78
2019-05-26T07:55:09.672Z,5.80
2019-05-26T07:57:39.164Z,6.00
2019-05-26T08:00:09.235Z,6.00
2019-05-26T08:02:38.707Z,6.30
2019-05-26T08:05:08.464Z,6.92
2019-05-26T08:07:37.846Z,7.60
2019-05-26T08:10:08.099Z,8.28
2019-05-26T08:12:37.522Z,7.40
2019-05-26T08:15:08.467Z,7.80
2019-05-26T08:17:37.957Z,7.42
2019-05-26T08:20:08.300Z,7.45
2019-05-26T08:22:37.776Z,8.20
2019-05-26T08:25:10.477Z,7.47
2019-05-26T08:27:39.971Z,8.50
2019-05-26T08:30:09.737Z,10.47
2019-05-26T08:32:40.046Z,8.73
2019-05-26T08:35:09.708Z,9.00
2019-05-26T08:37:39.051Z,7.87
2019-05-26T08:40:20.603Z,7.85
2019-05-26T08:42:51.328Z,7.78
2019-05-26T08:45:22.754Z,7.05
2019-05-26T08:47:52.639Z,6.70
2019-05-26T08:50:22.277Z,7.30
2019-05-26T08:52:51.756Z,7.95
2019-05-26T08:55:21.783Z,7.10
2019-05-26T08:57:51.167Z,7.45
2019-05-26T09:00:20.846Z,7.90
2019-05-26T09:02:50.155Z,6.80
2019-05-26T09:05:20.529Z,7.25
2019-05-26T09:10:18.838Z,6.75
2019-05-26T09:13:00.255Z,6.87
2019-05-26T09:15:19.396Z,7.83
2019-05-26T09:17:50.774Z,7.70
2019-05-26T09:20:20.706Z,6.95
2019-05-26T09:22:50.159Z,6.62
2019-05-26T09:25:20.044Z,5.90
2019-05-26T09:27:49.460Z,7.17
2019-05-26T09:30:19.207Z,6.10
2019-05-26T09:32:49.594Z,5.83
2019-05-26T09:35:19.137Z,5.80
2019-05-26T09:37:48.567Z,6.03
2019-05-26T09:40:19.076Z,5.67
2019-05-26T09:42:48.425Z,6.17
2019-05-26T09:45:19.438Z,5.47
2019-05-26T09:47:48.835Z,5.25
2019-05-26T09:50:18.794Z,5.70
2019-05-26T09:52:48.131Z,5.08
2019-05-26T09:55:17.850Z,5.07
2019-05-26T09:57:47.180Z,4.12
2019-05-26T10:00:17.398Z,43.15
2019-05-26T10:05:15.709Z,3.75
2019-05-26T10:07:45.268Z,3.58
2019-05-26T10:10:15.056Z,3.20
2019-05-26T10:12:44.423Z,3.15
2019-05-26T10:15:14.608Z,3.70
2019-05-26T10:17:43.934Z,3.08
2019-05-26T10:20:14.786Z,3.00
2019-05-26T10:22:44.264Z,2.60
2019-05-26T10:25:13.906Z,3.12
2019-05-26T10:27:43.391Z,2.37
2019-05-26T10:30:14.427Z,2.70
2019-05-26T10:32:43.894Z,6.40
2019-05-26T10:35:14.066Z,3.42
2019-05-26T10:37:43.401Z,2.58
2019-05-26T10:40:13.926Z,1.80
2019-05-26T10:42:43.378Z,1.72
2019-05-26T10:45:13.243Z,1.52
2019-05-26T10:47:42.570Z,1.67
2019-05-26T10:50:13.613Z,1.07
2019-05-26T10:52:43.007Z,1.15
2019-05-26T10:55:12.402Z,1.05
2019-05-26T11:00:11.377Z,1.07
2019-05-26T11:02:41.073Z,0.90
2019-05-26T11:05:10.735Z,1.00
2019-05-26T11:07:40.103Z,0.98
2019-05-26T11:10:10.121Z,0.60
2019-05-26T11:12:39.414Z,0.90
2019-05-26T11:17:38.365Z,0.93
2019-05-26T11:20:09.776Z,0.80
2019-05-26T11:22:39.088Z,0.72
2019-05-26T11:25:10.175Z,0.78
2019-05-26T11:27:39.469Z,0.88
2019-05-26T11:30:10.527Z,0.95
2019-05-26T11:32:39.906Z,0.80
2019-05-26T11:35:09.880Z,14.18
2019-05-26T11:37:39.187Z,2.05
2019-05-26T11:40:09.062Z,1.27
2019-05-26T11:42:38.361Z,1.15
2019-05-26T11:45:09.425Z,0.70
2019-05-26T11:47:38.725Z,1.17
2019-05-26T11:50:08.511Z,0.80
2019-05-26T11:52:37.944Z,0.88
2019-05-26T11:57:37.149Z,0.90
2019-05-26T12:00:09.752Z,1.80
2019-05-26T12:02:39.853Z,0.90
2019-05-26T12:05:09.433Z,1.00
2019-05-26T12:07:39.834Z,1.22
2019-05-26T12:10:13.904Z,0.70
2019-05-26T12:12:41.295Z,1.00
2019-05-26T12:15:12.654Z,1.72
2019-05-26T12:17:41.981Z,0.80
2019-05-26T12:22:40.159Z,2.25
2019-05-26T12:25:09.905Z,0.88
2019-05-26T12:27:39.219Z,0.53
2019-05-26T12:30:09.667Z,2.15
2019-05-26T12:32:39.363Z,0.60
2019-05-26T12:35:09.224Z,1.00
2019-05-26T12:37:38.723Z,1.98
2019-05-26T12:42:36.839Z,0.50
2019-05-26T12:45:10.241Z,0.60
2019-05-26T12:47:39.700Z,0.57
2019-05-26T12:50:09.995Z,1.07
2019-05-26T12:52:39.650Z,0.70
2019-05-26T12:55:10.273Z,0.50
2019-05-26T12:57:39.680Z,0.70
2019-05-26T13:00:11.014Z,0.78
2019-05-26T13:02:40.335Z,0.60
2019-05-26T13:05:10.868Z,0.40
2019-05-26T13:07:40.262Z,0.50
2019-05-26T13:10:10.209Z,0.28
2019-05-26T13:12:39.532Z,0.50
2019-05-26T13:15:10.778Z,0.35
2019-05-26T13:17:40.323Z,0.50
2019-05-26T13:25:09.805Z,0.40
2019-05-26T13:27:39.285Z,0.40
2019-05-26T13:30:11.832Z,0.50
2019-05-26T13:32:41.413Z,0.57
2019-05-26T13:35:11.383Z,0.60
2019-05-26T13:37:40.759Z,0.30
2019-05-26T13:40:10.326Z,0.40
2019-05-26T13:42:39.653Z,0.62
2019-05-26T13:45:21.812Z,0.80
2019-05-26T13:47:41.965Z,0.80
2019-05-26T13:50:11.926Z,1.27
2019-05-26T13:52:41.222Z,1.05
2019-05-26T13:55:11.392Z,0.80
2019-05-26T13:57:40.777Z,0.80
2019-05-26T14:05:08.808Z,0.70
2019-05-26T14:07:38.186Z,1.32
2019-05-26T14:10:09.470Z,0.90
2019-05-26T14:12:38.840Z,0.60
2019-05-26T14:17:38.396Z,1.62
2019-05-26T14:20:09.764Z,0.55
2019-05-26T14:22:39.062Z,0.50
2019-05-26T14:25:08.930Z,0.30
2019-05-26T14:27:38.279Z,0.42
2019-05-26T14:30:09.129Z,0.30
2019-05-26T14:32:38.417Z,0.62
2019-05-26T14:35:07.891Z,0.40
2019-05-26T14:37:37.189Z,0.90
2019-05-26T14:40:08.453Z,0.40
2019-05-26T14:42:37.819Z,0.47
2019-05-26T14:45:07.603Z,0.45
2019-05-26T14:50:08.120Z,0.53
2019-05-26T14:52:37.558Z,0.82
2019-05-26T14:55:07.745Z,0.40
2019-05-26T14:57:37.060Z,0.55
2019-05-26T15:00:08.242Z,0.50
2019-05-26T15:02:37.757Z,0.35
2019-05-26T15:05:08.710Z,0.60
2019-05-26T15:07:38.052Z,0.42
2019-05-26T15:10:08.689Z,1.07
2019-05-26T15:12:38.221Z,1.72
2019-05-26T15:15:08.283Z,0.82
2019-05-26T15:17:37.783Z,0.47
2019-05-26T15:20:07.937Z,0.40
2019-05-26T15:22:37.339Z,0.60
2019-05-26T15:25:07.148Z,0.93
2019-05-26T15:27:36.556Z,0.40
2019-05-26T15:30:08.949Z,0.75
2019-05-26T15:32:38.419Z,0.40
2019-05-26T15:35:08.456Z,0.40
2019-05-26T15:37:37.933Z,0.60
2019-05-26T15:40:08.377Z,0.40
2019-05-26T15:42:37.703Z,0.40
2019-05-26T15:45:08.173Z,0.60
2019-05-26T15:47:37.640Z,0.57
2019-05-26T15:50:08.507Z,1.22
2019-05-26T15:52:38.828Z,1.70
2019-05-26T15:55:08.441Z,0.90
2019-05-26T15:57:37.733Z,0.82
2019-05-26T16:00:08.004Z,0.93
2019-05-26T16:02:37.454Z,0.85
2019-05-26T16:05:07.002Z,0.90
2019-05-26T16:07:36.324Z,0.78
2019-05-26T16:10:07.534Z,6.47
2019-05-26T16:12:36.872Z,4.12
2019-05-26T16:15:08.712Z,0.70
2019-05-26T16:17:38.978Z,1.67
2019-05-26T16:20:09.603Z,0.82
2019-05-26T16:22:41.301Z,4.25
2019-05-26T16:25:11.550Z,0.80
2019-05-26T16:27:43.823Z,0.70
2019-05-26T16:30:15.136Z,0.70
2019-05-26T16:32:44.465Z,0.50
2019-05-26T16:35:15.024Z,0.65
2019-05-26T16:37:49.333Z,0.60
2019-05-26T16:40:22.301Z,0.85
2019-05-26T16:42:56.525Z,0.80
2019-05-26T16:45:37.119Z,0.60
2019-05-26T16:48:07.864Z,0.62
2019-05-26T16:50:37.211Z,0.70
2019-05-26T16:53:06.642Z,0.60
2019-05-26T16:55:36.078Z,0.70
2019-05-26T16:58:06.868Z,0.78
2019-05-26T17:00:36.474Z,0.60
2019-05-26T17:03:06.012Z,0.88
2019-05-26T17:05:35.391Z,0.57
2019-05-26T17:08:04.720Z,1.73
2019-05-26T17:10:34.046Z,3.73
2019-05-26T17:13:03.442Z,2.43
2019-05-26T17:15:32.745Z,1.22
2019-05-26T17:18:02.071Z,0.80
2019-05-26T17:20:31.372Z,0.90
2019-05-26T17:23:00.712Z,1.00
2019-05-26T17:25:30.668Z,1.00
2019-05-26T17:28:00.000Z,1.45
2019-05-26T17:30:29.406Z,1.10
2019-05-26T17:32:58.773Z,1.37
2019-05-26T17:35:28.070Z,1.50
2019-05-26T17:37:57.397Z,2.13
2019-05-26T17:40:26.745Z,2.87
2019-05-26T17:42:56.086Z,2.03
2019-05-26T17:45:25.527Z,1.10
2019-05-26T17:47:54.872Z,1.10
2019-05-26T17:50:24.208Z,1.10
2019-05-26T17:52:53.535Z,1.50
2019-05-26T17:55:22.985Z,1.47
2019-05-26T17:57:52.355Z,1.22
2019-05-26T18:00:21.757Z,1.40
2019-05-26T18:02:51.231Z,1.10
2019-05-26T18:05:20.749Z,1.32
2019-05-26T18:07:50.125Z,1.12
2019-05-26T18:10:20.770Z,1.30
2019-05-26T18:12:50.169Z,1.27
2019-05-26T18:15:19.722Z,1.30
2019-05-26T18:17:49.051Z,1.20
2019-05-26T18:20:20.832Z,1.53
2019-05-26T18:22:50.202Z,2.90
2019-05-26T18:25:19.669Z,0.80
2019-05-26T18:27:49.048Z,1.20
2019-05-26T18:30:18.809Z,1.10
2019-05-26T18:32:48.176Z,1.00
2019-05-26T18:35:18.551Z,1.13
2019-05-26T18:37:47.934Z,1.20
2019-05-26T18:40:17.742Z,1.00
2019-05-26T18:42:47.058Z,0.90
2019-05-26T18:45:16.916Z,0.98
2019-05-26T18:48:01.391Z,1.10
2019-05-26T18:50:18.437Z,1.12
2019-05-26T18:52:47.770Z,1.12
2019-05-26T18:55:17.161Z,1.10
2019-05-26T18:57:46.489Z,1.17
2019-05-26T19:00:16.522Z,1.10
2019-05-26T19:02:45.886Z,1.20
2019-05-26T19:05:16.041Z,1.30
2019-05-26T19:07:46.204Z,1.20
2019-05-26T19:10:15.789Z,1.22
2019-05-26T19:12:45.106Z,1.10
2019-05-26T19:15:15.054Z,1.37
2019-05-26T19:17:44.470Z,2.40
2019-05-26T19:20:16.724Z,1.22
2019-05-26T19:22:45.658Z,1.42
2019-05-26T19:25:15.324Z,1.32
2019-05-26T19:27:44.730Z,1.15
2019-05-26T19:30:15.071Z,1.20
2019-05-26T19:35:13.600Z,1.27
2019-05-26T19:37:44.305Z,1.30
2019-05-26T19:40:13.958Z,1.40
2019-05-26T19:42:43.352Z,1.30
2019-05-26T19:45:13.469Z,1.12
2019-05-26T19:47:42.902Z,1.47
2019-05-26T19:50:13.415Z,1.87
2019-05-26T19:55:12.864Z,1.17
2019-05-26T19:57:42.339Z,1.30
2019-05-26T20:00:14.242Z,1.70
2019-05-26T20:02:43.726Z,1.67
2019-05-26T20:05:13.514Z,1.23
2019-05-26T20:07:42.933Z,1.50
2019-05-26T20:10:12.855Z,1.10
2019-05-26T20:12:42.166Z,1.40
2019-05-26T20:15:11.922Z,1.30
2019-05-26T20:17:41.325Z,1.30
2019-05-26T20:20:11.303Z,1.47
2019-05-26T20:22:40.731Z,2.25
2019-05-26T20:25:11.396Z,1.65
2019-05-26T20:27:40.716Z,1.75
2019-05-26T20:30:10.698Z,1.70
2019-05-26T20:32:40.113Z,1.50
2019-05-26T20:35:10.097Z,1.90
2019-05-26T20:37:39.446Z,1.60
2019-05-26T20:40:09.745Z,1.55
2019-05-26T20:45:08.242Z,1.52
2019-05-26T20:47:37.538Z,1.50
2019-05-26T20:50:08.705Z,1.52
2019-05-26T20:52:39.087Z,1.62
2019-05-26T20:55:09.414Z,1.55
2019-05-26T20:57:38.713Z,1.40
2019-05-26T21:00:11.115Z,1.70
2019-05-26T21:02:41.245Z,1.67
2019-05-26T21:05:11.010Z,1.62
2019-05-26T21:07:40.298Z,1.65
2019-05-26T21:10:09.991Z,1.40
2019-05-26T21:12:39.970Z,1.72
2019-05-26T21:15:09.636Z,1.62
2019-05-26T21:17:40.035Z,1.80
2019-05-26T21:20:09.814Z,1.80
2019-05-26T21:22:39.123Z,1.40
2019-05-26T21:25:08.783Z,1.65
2019-05-26T21:27:38.081Z,1.60
2019-05-26T21:30:07.940Z,1.70
2019-05-26T21:32:37.236Z,2.02
2019-05-26T21:35:07.963Z,2.15
2019-05-26T21:37:37.277Z,2.33
2019-05-26T21:40:08.252Z,2.22
2019-05-26T21:42:37.545Z,1.92
2019-05-26T21:45:07.515Z,1.98
2019-05-26T21:47:36.814Z,1.87
2019-05-26T21:50:08.681Z,2.12
2019-05-26T21:52:38.225Z,2.35
2019-05-26T21:55:07.902Z,2.47
2019-05-26T21:57:37.240Z,2.77
2019-05-26T22:00:12.220Z,2.50
2019-05-26T22:02:43.417Z,2.67
2019-05-26T22:05:13.198Z,2.72
2019-05-26T22:07:42.517Z,2.30
2019-05-26T22:10:11.982Z,2.25
2019-05-26T22:12:42.483Z,2.10
2019-05-26T22:15:12.246Z,2.40
2019-05-26T22:17:41.551Z,3.02
2019-05-26T22:20:11.219Z,2.87
2019-05-26T22:22:40.579Z,2.77
2019-05-26T22:25:22.126Z,3.12
2019-05-26T22:27:51.510Z,2.90
2019-05-26T22:30:21.400Z,3.27
2019-05-26T22:32:50.803Z,2.92
2019-05-26T22:35:20.104Z,2.52
2019-05-26T22:37:49.434Z,2.65
2019-05-26T22:40:18.935Z,2.75
2019-05-26T22:42:48.277Z,3.08
2019-05-26T22:45:17.822Z,2.87
2019-05-26T22:47:47.156Z,2.70
2019-05-26T22:50:16.566Z,2.62
2019-05-26T22:52:45.888Z,2.87
2019-05-26T22:55:15.428Z,2.72
2019-05-26T22:57:44.763Z,3.33
2019-05-26T23:00:14.602Z,3.20
2019-05-26T23:02:44.175Z,2.70
2019-05-26T23:05:13.842Z,3.25
2019-05-26T23:07:43.344Z,3.33
2019-05-26T23:10:12.933Z,2.98
2019-05-26T23:12:42.315Z,2.90
2019-05-26T23:15:11.978Z,3.02
2019-05-26T23:17:41.372Z,3.10
2019-05-26T23:20:11.237Z,3.45
2019-05-26T23:22:40.544Z,2.98
2019-05-26T23:25:10.115Z,3.00
2019-05-26T23:27:39.502Z,3.60
2019-05-26T23:30:09.572Z,3.58
2019-05-26T23:32:38.879Z,3.75
2019-05-26T23:35:08.569Z,3.52
2019-05-26T23:37:37.931Z,3.50
2019-05-26T23:40:07.711Z,3.60
2019-05-26T23:45:07.081Z,3.83
2019-05-26T23:47:36.379Z,3.42
2019-05-26T23:50:07.102Z,4.60
2019-05-26T23:52:36.418Z,4.08
2019-05-26T23:55:07.466Z,3.60
2019-05-26T23:57:37.857Z,3.42
